Time;durP1;ratioP1;P1;durP2;ratioP2;P2;SDS_P1;SDS_P2;PMS_P1;PMS_P2;Temp;Humidity;BMP_temperature;BMP_pressure;BME280_temperature;BME280_humidity;BME280_pressure;Samples;Min_cycle;Max_cycle;Signal;HPM_P1;HPM_P2
2022/12/05 00:01:12;;;;;;;8.43;4.10;;;;;;;3.51;100.00;99287.13;4469895;32;20187;-71
2022/12/05 00:03:40;;;;;;;11.43;5.35;;;;;;;3.60;100.00;99270.25;4470014;32;20203;-71
2022/12/05 00:06:07;;;;;;;8.80;4.12;;;;;;;3.68;100.00;99267.25;4467500;32;83819;-71
2022/12/05 00:08:34;;;;;;;10.52;4.65;;;;;;;3.66;100.00;99269.94;4475285;32;20175;-71
2022/12/05 00:11:01;;;;;;;11.75;5.37;;;;;;;3.68;100.00;99278.47;4485513;31;20590;-71
2022/12/05 00:13:28;;;;;;;9.02;4.57;;;;;;;3.65;100.00;99278.63;4485522;32;20161;-71
2022/12/05 00:15:55;;;;;;;11.52;4.75;;;;;;;3.59;100.00;99275.50;4485554;31;20108;-71
2022/12/05 00:18:23;;;;;;;10.23;4.55;;;;;;;3.55;100.00;99277.44;4485223;32;20148;-71
2022/12/05 00:20:50;;;;;;;9.32;4.15;;;;;;;3.58;100.00;99273.88;4478841;32;20366;-71
2022/12/05 00:23:17;;;;;;;8.35;4.30;;;;;;;3.57;100.00;99275.59;4469837;32;20154;-71
2022/12/05 00:25:44;;;;;;;7.72;3.92;;;;;;;3.55;100.00;99277.44;4469715;32;20123;-71
2022/12/05 00:28:11;;;;;;;9.23;3.50;;;;;;;3.59;100.00;99270.34;4469650;32;20459;-71
2022/12/05 00:30:39;;;;;;;8.07;3.92;;;;;;;3.55;100.00;99274.84;4469498;32;20085;-71
2022/12/05 00:33:07;;;;;;;6.87;3.75;;;;;;;3.60;100.00;99279.78;4469742;32;20177;-71
2022/12/05 00:35:34;;;;;;;8.98;4.28;;;;;;;3.58;100.00;99279.88;4469620;32;20088;-71
2022/12/05 00:38:01;;;;;;;7.37;3.78;;;;;;;3.49;100.00;99272.59;4469593;32;20112;-71
2022/12/05 00:40:28;;;;;;;8.50;4.22;;;;;;;3.52;100.00;99275.00;4469671;32;20081;-71
2022/12/05 00:42:55;;;;;;;8.38;4.72;;;;;;;3.40;100.00;99283.41;4469697;32;20115;-71
2022/12/05 00:45:22;;;;;;;8.85;4.43;;;;;;;3.44;100.00;99288.38;4469755;32;20159;-71
2022/12/05 00:47:49;;;;;;;8.00;4.25;;;;;;;3.46;100.00;99283.09;4469587;32;20477;-71
2022/12/05 00:50:16;;;;;;;7.07;4.05;;;;;;;3.42;100.00;99287.59;4469527;32;20427;-71
2022/12/05 00:52:43;;;;;;;10.32;4.62;;;;;;;3.46;100.00;99278.75;4469557;32;20100;-71
2022/12/05 00:55:11;;;;;;;9.90;4.82;;;;;;;3.47;100.00;99269.25;4469467;32;20480;-71
2022/12/05 00:57:38;;;;;;;9.02;3.95;;;;;;;3.31;100.00;99274.38;4469392;32;20088;-71
2022/12/05 01:00:06;;;;;;;9.07;4.30;;;;;;;3.37;100.00;99271.47;4469273;32;20555;-71
2022/12/05 01:02:33;;;;;;;7.97;3.58;;;;;;;3.39;100.00;99277.37;4469655;32;20143;-71
2022/12/05 01:05:00;;;;;;;10.38;4.47;;;;;;;3.34;100.00;99269.84;4469276;32;20096;-71
2022/12/05 01:07:27;;;;;;;6.97;4.50;;;;;;;3.40;100.00;99270.47;4469256;32;20461;-71
2022/12/05 01:09:54;;;;;;;8.50;4.20;;;;;;;3.35;100.00;99262.94;4483453;32;20143;-71
2022/12/05 01:12:22;;;;;;;9.90;4.68;;;;;;;3.34;100.00;99263.84;4485245;32;20116;-71
2022/12/05 01:14:49;;;;;;;7.97;4.53;;;;;;;3.33;100.00;99262.16;4485243;31;20103;-71
2022/12/05 01:17:16;;;;;;;8.48;4.12;;;;;;;3.30;100.00;99258.00;4485367;31;20510;-71
2022/12/05 01:19:43;;;;;;;8.07;3.67;;;;;;;3.25;100.00;99248.78;4485323;32;20160;-71
2022/12/05 01:22:10;;;;;;;8.60;4.35;;;;;;;3.29;100.00;99242.53;4470312;32;20490;-71
2022/12/05 01:24:38;;;;;;;8.48;4.25;;;;;;;3.29;100.00;99256.31;4469114;32;20160;-71
2022/12/05 01:27:05;;;;;;;7.97;3.33;;;;;;;3.21;100.00;99258.47;4469369;32;20509;-71
2022/12/05 01:29:32;;;;;;;9.38;4.40;;;;;;;3.29;100.00;99256.31;4468912;32;20137;-71
2022/12/05 01:31:59;;;;;;;9.98;5.20;;;;;;;3.24;100.00;99252.28;4468739;32;20109;-71
2022/12/05 01:34:26;;;;;;;10.52;5.05;;;;;;;3.28;100.00;99248.63;4469092;32;20092;-71
2022/12/05 01:36:53;;;;;;;11.38;4.60;;;;;;;3.24;100.00;99258.31;4469203;32;20114;-71
2022/12/05 01:39:21;;;;;;;7.40;3.97;;;;;;;3.21;100.00;99263.66;4469058;32;20096;-71
2022/12/05 01:41:49;;;;;;;10.40;4.47;;;;;;;3.15;100.00;99258.75;4469072;32;20164;-72
2022/12/05 01:44:16;;;;;;;11.55;4.32;;;;;;;3.17;100.00;99264.72;4469122;32;20104;-71
2022/12/05 01:46:48;;;;;;;10.48;4.72;;;;;;;3.26;100.00;99260.84;4469066;32;20088;-71
2022/12/05 01:49:24;;;;;;;11.30;4.20;;;;;;;3.25;100.00;99254.78;4468991;32;20076;-71
2022/12/05 01:51:54;;;;;;;10.05;4.82;;;;;;;3.17;100.00;99252.59;4469062;32;20502;-71
2022/12/05 01:54:22;;;;;;;10.80;4.65;;;;;;;3.16;100.00;99245.78;4467744;32;20172;-71
2022/12/05 01:56:54;;;;;;;10.43;4.45;;;;;;;3.23;100.00;99251.47;4468686;32;20104;-71
2022/12/05 01:59:22;;;;;;;10.32;4.37;;;;;;;3.20;100.00;99243.84;4468802;32;20106;-71
2022/12/05 02:01:50;;;;;;;7.60;4.05;;;;;;;3.25;100.00;99248.78;4468797;32;20124;-71
2022/12/05 02:04:17;;;;;;;9.50;4.68;;;;;;;3.13;100.00;99248.50;4469065;32;20093;-71
2022/12/05 02:06:45;;;;;;;7.62;4.32;;;;;;;3.17;100.00;99254.37;4468579;32;20156;-72
2022/12/05 02:09:12;;;;;;;10.05;4.93;;;;;;;3.20;100.00;99261.97;4478176;32;20195;-71
2022/12/05 02:11:50;;;;;;;10.48;4.68;;;;;;;3.12;100.00;99254.59;4484431;31;20112;-71
2022/12/05 02:14:52;;;;;;;8.98;4.30;;;;;;;3.09;100.00;99259.94;4483131;32;20092;-72
2022/12/05 02:17:22;;;;;;;10.60;4.15;;;;;;;3.19;100.00;99257.69;4419857;32;20139;-71
2022/12/05 02:19:58;;;;;;;7.85;4.18;;;;;;;3.18;100.00;99261.22;4419715;32;20288;-71
2022/12/05 02:22:56;;;;;;;9.88;4.87;;;;;;;3.22;100.00;99254.94;4404331;32;20124;-71
2022/12/05 02:25:41;;;;;;;9.50;5.05;;;;;;;3.22;100.00;99265.31;4404190;32;21153;-71
2022/12/05 02:28:33;;;;;;;10.25;5.05;;;;;;;3.20;100.00;99260.22;4392080;32;20112;-71
2022/12/05 02:31:09;;;;;;;11.23;5.30;;;;;;;3.23;100.00;99256.63;4404057;32;20102;-71
2022/12/05 02:33:42;;;;;;;11.48;5.05;;;;;;;3.29;100.00;99265.84;4404275;32;20162;-71
2022/12/05 02:36:16;;;;;;;12.27;5.12;;;;;;;3.27;100.00;99276.28;4391906;32;20101;-71
2022/12/05 02:38:49;;;;;;;10.02;5.28;;;;;;;3.27;100.00;99278.03;4392238;32;20137;-71
2022/12/05 02:41:16;;;;;;;10.38;4.75;;;;;;;3.21;100.00;99274.00;4404214;32;20156;-71
2022/12/05 02:43:58;;;;;;;11.77;5.18;;;;;;;3.28;100.00;99269.34;4404572;32;20188;-72
2022/12/05 02:46:28;;;;;;;11.23;5.05;;;;;;;3.16;100.00;99276.84;4406285;32;20458;-71
2022/12/05 02:48:59;;;;;;;8.75;4.75;;;;;;;3.12;100.00;99277.03;4393797;32;20493;-72
2022/12/05 02:51:29;;;;;;;9.43;4.37;;;;;;;3.12;100.00;99284.81;4406237;32;20090;-72
2022/12/05 02:54:01;;;;;;;10.65;5.28;;;;;;;3.01;100.00;99273.25;4435119;32;20096;-72
2022/12/05 02:56:29;;;;;;;11.35;5.03;;;;;;;3.07;100.00;99279.84;4469069;32;20618;-72
2022/12/05 02:58:57;;;;;;;11.93;4.68;;;;;;;3.00;100.00;99276.75;4469354;32;20111;-71
2022/12/05 03:01:26;;;;;;;11.60;5.05;;;;;;;2.98;100.00;99281.19;4470364;32;20156;-72
2022/12/05 03:03:54;;;;;;;11.27;5.60;;;;;;;3.04;100.00;99280.00;4468996;32;20173;-71
2022/12/05 03:06:33;;;;;;;11.48;5.35;;;;;;;3.01;100.00;99277.59;4470090;32;20143;-71
2022/12/05 03:09:02;;;;;;;16.90;5.87;;;;;;;3.00;100.00;99274.16;4478671;32;20127;-72
2022/12/05 03:11:34;;;;;;;14.30;6.47;;;;;;;2.98;100.00;99272.56;4485768;31;20450;-71
2022/12/05 03:14:02;;;;;;;12.60;5.60;;;;;;;3.06;100.00;99280.78;4485005;32;20118;-71
2022/12/05 03:16:34;;;;;;;12.50;5.62;;;;;;;3.10;100.00;99271.13;4484626;32;20509;-72
2022/12/05 03:19:09;;;;;;;15.48;6.28;;;;;;;3.08;100.00;99272.97;4485914;31;20436;-71
2022/12/05 03:21:40;;;;;;;14.70;5.97;;;;;;;3.01;100.00;99278.44;4473396;32;20148;-71
2022/12/05 03:24:09;;;;;;;11.52;5.82;;;;;;;3.04;100.00;99271.44;4468964;32;20119;-71
2022/12/05 03:26:39;;;;;;;12.80;6.00;;;;;;;3.05;100.00;99273.09;4468818;32;20571;-71
2022/12/05 03:29:30;;;;;;;12.05;5.45;;;;;;;3.08;100.00;99257.41;4468908;32;20096;-71
2022/12/05 03:32:16;;;;;;;13.50;6.15;;;;;;;3.07;100.00;99263.50;4469092;32;20108;-71
2022/12/05 03:35:24;;;;;;;13.43;6.18;;;;;;;2.98;100.00;99263.06;4470256;32;20423;-71
2022/12/05 03:38:03;;;;;;;14.30;6.75;;;;;;;2.98;100.00;99257.03;4405860;32;20614;-71
2022/12/05 03:40:52;;;;;;;11.52;5.87;;;;;;;3.06;100.00;99257.50;4405835;32;20565;-71
2022/12/05 03:43:23;;;;;;;11.77;6.15;;;;;;;3.09;100.00;99256.47;4405901;32;20524;-71
2022/12/05 03:46:07;;;;;;;11.65;5.95;;;;;;;3.11;100.00;99257.28;4406024;32;20156;-71
2022/12/05 03:48:46;;;;;;;12.48;6.10;;;;;;;3.10;100.00;99264.19;4405959;32;20617;-71
2022/12/05 03:51:15;;;;;;;13.00;6.75;;;;;;;3.07;100.00;99271.28;4405919;32;20102;-72
2022/12/05 03:54:10;;;;;;;17.12;7.37;;;;;;;3.07;100.00;99276.44;4393351;32;20153;-71
2022/12/05 03:56:42;;;;;;;15.90;6.80;;;;;;;3.06;100.00;99273.03;4404415;32;20111;-71
2022/12/05 03:59:29;;;;;;;13.32;6.43;;;;;;;3.15;100.00;99275.16;4393341;32;20140;-71
2022/12/05 04:01:57;;;;;;;15.27;6.68;;;;;;;3.04;100.00;99271.44;4393100;32;20535;-71
2022/12/05 04:04:33;;;;;;;14.65;6.47;;;;;;;3.08;100.00;99276.37;4393146;32;20133;-72
2022/12/05 04:07:03;;;;;;;14.48;7.25;;;;;;;3.08;100.00;99271.19;4393184;32;20160;-71
2022/12/05 04:09:43;;;;;;;13.93;6.75;;;;;;;3.02;100.00;99274.09;4404539;32;20120;-71
2022/12/05 04:12:14;;;;;;;16.27;6.75;;;;;;;3.14;100.00;99278.66;4408250;32;20097;-71
2022/12/05 04:14:46;;;;;;;16.25;6.47;;;;;;;3.11;100.00;99268.44;4457680;32;20139;-71
2022/12/05 04:17:13;;;;;;;17.92;6.85;;;;;;;3.11;100.00;99267.63;4484379;32;20126;-72
2022/12/05 04:22:33;;;;;;;15.60;7.43;;;;;;;3.16;100.00;99261.31;4469667;32;20076;-72
2022/12/05 04:28:08;;;;;;;15.13;6.35;;;;;;;3.06;100.00;99256.66;4468635;32;20152;-71
2022/12/05 04:31:12;;;;;;;13.18;6.87;;;;;;;3.13;100.00;99226.94;4468387;32;20116;-72
2022/12/05 04:33:49;;;;;;;;;;;;;;;3.12;100.00;99248.56;4469770;32;20101;-72
2022/12/05 04:36:49;;;;;;;10.70;5.32;;;;;;;3.11;100.00;99239.16;4468528;32;19981;-72
2022/12/05 04:39:21;;;;;;;13.82;6.03;;;;;;;3.04;100.00;99241.19;4462657;32;20168;-71
2022/12/05 04:41:55;;;;;;;15.18;7.18;;;;;;;3.09;100.00;99236.63;4468433;32;20119;-72
2022/12/05 04:44:29;;;;;;;20.23;7.75;;;;;;;3.01;100.00;99241.34;4468259;32;20156;-71
2022/12/05 04:46:59;;;;;;;13.18;6.70;;;;;;;2.98;100.00;99239.78;4468469;32;20080;-71
2022/12/05 04:49:28;;;;;;;12.07;6.15;;;;;;;2.99;100.00;99231.06;4468266;32;20104;-71
2022/12/05 04:52:04;;;;;;;16.85;6.80;;;;;;;3.02;100.00;99238.69;4469524;32;20161;-71
2022/12/05 04:54:45;;;;;;;12.40;6.10;;;;;;;3.06;100.00;99233.34;4469597;32;20176;-71
2022/12/05 04:57:22;;;;;;;14.90;7.32;;;;;;;3.13;100.00;99229.53;4468322;32;20438;-71
2022/12/05 04:59:49;;;;;;;17.73;7.47;;;;;;;3.07;100.00;99240.22;4469481;32;20211;-71
2022/12/05 05:02:21;;;;;;;12.70;6.30;;;;;;;3.04;100.00;99246.37;4469328;32;20142;-71
2022/12/05 05:04:50;;;;;;;12.77;7.00;;;;;;;3.08;100.00;99252.25;4468105;32;20111;-72
2022/12/05 05:07:18;;;;;;;15.20;7.85;;;;;;;3.05;100.00;99267.94;4468481;32;20093;-71
2022/12/05 05:09:45;;;;;;;15.23;7.07;;;;;;;2.94;100.00;99274.47;4482291;32;20104;-72
2022/12/05 05:12:12;;;;;;;15.75;6.87;;;;;;;3.06;100.00;99265.25;4484976;31;20471;-72
2022/12/05 05:14:45;;;;;;;17.48;7.75;;;;;;;3.01;100.00;99265.50;4485082;31;20190;-72
2022/12/05 05:17:12;;;;;;;14.98;7.53;;;;;;;3.06;100.00;99275.63;4484868;32;20136;-71
2022/12/05 05:19:39;;;;;;;14.93;7.37;;;;;;;3.14;100.00;99264.88;4484254;32;20163;-72
2022/12/05 05:22:06;;;;;;;18.75;8.35;;;;;;;3.06;100.00;99265.25;4469541;32;20172;-71
2022/12/05 05:24:33;;;;;;;16.98;8.00;;;;;;;3.05;100.00;99271.34;4468831;32;20093;-72
2022/12/05 05:27:00;;;;;;;17.42;8.38;;;;;;;3.06;100.00;99272.16;4469148;32;20101;-72
2022/12/05 05:29:27;;;;;;;15.10;7.32;;;;;;;3.06;100.00;99267.00;4468975;32;20573;-71
2022/12/05 05:31:55;;;;;;;18.58;8.43;;;;;;;3.09;100.00;99272.88;4469192;32;20105;-72
2022/12/05 05:34:22;;;;;;;19.52;8.48;;;;;;;3.13;100.00;99276.97;4469026;32;20122;-71
2022/12/05 05:36:52;;;;;;;16.77;7.95;;;;;;;3.11;100.00;99265.03;4468993;32;20112;-72
2022/12/05 05:39:19;;;;;;;19.87;8.25;;;;;;;3.16;100.00;99270.81;4469129;32;20084;-72
2022/12/05 05:41:46;;;;;;;17.00;8.30;;;;;;;3.14;100.00;99262.28;4469149;32;20169;-72
2022/12/05 05:44:13;;;;;;;16.92;7.43;;;;;;;3.19;100.00;99263.72;4469073;32;20101;-72
2022/12/05 05:46:40;;;;;;;14.82;7.78;;;;;;;3.23;100.00;99272.16;4469142;32;20156;-72
2022/12/05 05:49:09;;;;;;;16.62;7.68;;;;;;;3.13;100.00;99269.19;4468852;32;20116;-72
2022/12/05 05:51:36;;;;;;;15.82;6.80;;;;;;;3.12;100.00;99272.72;4469125;32;20100;-72
2022/12/05 05:54:03;;;;;;;14.55;7.65;;;;;;;3.17;100.00;99268.13;4468729;32;20120;-71
2022/12/05 05:56:30;;;;;;;15.43;7.85;;;;;;;3.29;100.00;99277.03;4468631;32;20164;-71
2022/12/05 05:59:00;;;;;;;14.68;7.65;;;;;;;3.26;100.00;99281.53;4477560;32;20143;-71
2022/12/05 06:01:27;;;;;;;17.50;7.93;;;;;;;3.28;100.00;99290.06;4468735;32;20176;-71
2022/12/05 06:03:55;;;;;;;18.12;7.75;;;;;;;3.32;100.00;99289.00;4467449;32;20175;-71
2022/12/05 06:06:23;;;;;;;17.15;8.55;;;;;;;3.27;100.00;99294.41;4478210;32;20118;-71
2022/12/05 06:08:50;;;;;;;21.90;7.05;;;;;;;3.23;100.00;99287.72;4477784;31;20103;-71
2022/12/05 06:11:23;;;;;;;21.30;7.60;;;;;;;3.27;100.00;99283.19;4481735;32;20120;-71
2022/12/05 06:13:57;;;;;;;15.82;7.32;;;;;;;3.28;100.00;99280.53;4482096;31;20561;-71
2022/12/05 06:16:24;;;;;;;13.70;7.18;;;;;;;3.26;100.00;99284.97;4484310;31;20442;-71
2022/12/05 06:18:51;;;;;;;17.27;7.47;;;;;;;3.22;100.00;99287.78;4484368;32;20088;-71
2022/12/05 06:21:20;;;;;;;14.40;6.95;;;;;;;3.24;100.00;99289.38;4484268;31;20108;-71
2022/12/05 06:23:48;;;;;;;20.05;7.60;;;;;;;3.22;100.00;99298.13;4479964;31;20163;-72
2022/12/05 06:26:18;;;;;;;15.48;7.28;;;;;;;3.23;100.00;99297.25;4475777;32;20092;-72
2022/12/05 06:28:45;;;;;;;12.20;5.65;;;;;;;3.26;100.00;99297.09;4485982;31;20442;-72
2022/12/05 06:31:23;;;;;;;14.25;7.70;;;;;;;3.34;100.00;99295.75;4484935;32;20108;-72
2022/12/05 06:33:50;;;;;;;13.65;6.87;;;;;;;3.34;100.00;99306.09;4482017;31;20092;-71
2022/12/05 06:36:20;;;;;;;10.55;5.43;;;;;;;3.36;100.00;99306.03;4483003;32;20100;-70
2022/12/05 06:38:47;;;;;;;12.57;6.57;;;;;;;3.30;100.00;99302.03;4480668;31;20122;-73
2022/12/05 06:41:16;;;;;;;14.35;7.65;;;;;;;3.37;100.00;99308.53;4471286;32;20088;-72
2022/12/05 06:43:44;;;;;;;15.73;7.97;;;;;;;3.34;100.00;99316.47;4472006;32;20104;-72
2022/12/05 06:46:12;;;;;;;13.25;6.50;;;;;;;3.44;100.00;99316.03;4476128;31;20122;-72
2022/12/05 06:48:39;;;;;;;15.38;6.68;;;;;;;3.49;100.00;99308.84;4482490;32;20085;-71
2022/12/05 06:51:11;;;;;;;17.17;7.18;;;;;;;3.47;100.00;99315.87;4483157;31;20466;-72
2022/12/05 06:53:38;;;;;;;17.67;8.77;;;;;;;3.46;100.00;99303.81;4472944;31;20110;-73
2022/12/05 06:56:12;;;;;;;18.37;7.95;;;;;;;3.53;100.00;99312.97;4479770;32;20125;-73
2022/12/05 06:58:41;;;;;;;14.68;7.22;;;;;;;3.46;100.00;99306.41;4479275;31;20100;-72
2022/12/05 07:04:07;;;;;;;14.68;7.30;;;;;;;3.55;100.00;99319.72;4484557;31;20160;-74
2022/12/05 07:06:34;;;;;;;19.52;7.47;;;;;;;3.63;100.00;99321.09;4479559;32;20114;-72
2022/12/05 07:09:02;;;;;;;15.48;7.87;;;;;;;3.65;100.00;99334.78;4475582;31;20092;-72
2022/12/05 07:11:29;;;;;;;15.75;7.18;;;;;;;3.62;100.00;99330.63;4481096;32;20084;-73
2022/12/05 07:13:56;;;;;;;13.55;7.20;;;;;;;3.68;100.00;99337.22;4482845;32;20097;-73
2022/12/05 07:16:23;;;;;;;17.90;7.93;;;;;;;3.61;100.00;99330.69;4483847;31;20176;-73
2022/12/05 07:18:51;;;;;;;17.02;8.00;;;;;;;3.69;100.00;99344.94;4482179;31;20165;-73
2022/12/05 07:21:20;;;;;;;15.32;7.20;;;;;;;3.66;100.00;99341.66;4481485;31;20152;-73
2022/12/05 07:23:49;;;;;;;15.77;8.32;;;;;;;3.60;100.00;99336.78;4482194;31;20477;-74
2022/12/05 07:26:19;;;;;;;14.70;7.55;;;;;;;3.66;100.00;99341.66;4482068;32;20169;-74
2022/12/05 07:28:46;;;;;;;14.82;7.82;;;;;;;3.64;100.00;99338.31;4483505;31;20422;-73
2022/12/05 07:31:17;;;;;;;18.55;8.38;;;;;;;3.69;100.00;99331.97;4477562;31;20567;-73
2022/12/05 07:33:44;;;;;;;17.12;7.37;;;;;;;3.67;100.00;99340.75;4477437;32;20155;-73
2022/12/05 07:36:14;;;;;;;14.00;7.32;;;;;;;3.63;100.00;99347.00;4477151;32;20093;-72
2022/12/05 07:38:41;;;;;;;17.62;7.22;;;;;;;3.61;100.00;99362.63;4481410;31;20108;-73
2022/12/05 07:41:24;;;;;;;18.65;7.97;;;;;;;3.67;100.00;99354.53;4478651;31;20119;-73
2022/12/05 07:43:51;;;;;;;18.05;8.27;;;;;;;3.69;100.00;99359.63;4484825;31;20100;-72
2022/12/05 07:46:19;;;;;;;23.35;9.48;;;;;;;3.73;100.00;99364.56;4482319;31;20110;-73
2022/12/05 07:48:46;;;;;;;17.08;8.18;;;;;;;3.68;100.00;99361.37;4476736;31;20104;-74
2022/12/05 07:51:14;;;;;;;16.12;8.45;;;;;;;3.69;100.00;99354.44;4476220;32;20164;-73
2022/12/05 07:53:43;;;;;;;18.65;8.20;;;;;;;3.79;100.00;99363.44;4483642;31;20104;-73
2022/12/05 07:56:15;;;;;;;18.73;9.25;;;;;;;3.89;100.00;99372.41;4483780;31;20165;-74
2022/12/05 07:58:44;;;;;;;15.82;7.53;;;;;;;3.84;100.00;99370.97;4485251;31;20123;-73
2022/12/05 08:01:17;;;;;;;20.25;10.18;;;;;;;3.89;100.00;99364.62;4481991;31;20149;-73
2022/12/05 08:03:45;;;;;;;15.82;8.68;;;;;;;3.90;100.00;99361.09;4484041;32;20096;-73
2022/12/05 08:06:15;;;;;;;18.52;8.98;;;;;;;3.79;100.00;99367.78;4480373;31;20117;-74
2022/12/05 08:08:42;;;;;;;18.67;9.10;;;;;;;3.86;100.00;99363.94;4480180;31;21137;-75
2022/12/05 08:11:11;;;;;;;19.85;8.75;;;;;;;3.90;100.00;99365.47;4479409;31;20222;-76
2022/12/05 08:13:39;;;;;;;21.00;8.60;;;;;;;3.95;100.00;99368.66;4484256;31;20084;-75
2022/12/05 08:16:09;;;;;;;18.20;9.48;;;;;;;3.92;100.00;99368.78;4481357;31;20108;-75
2022/12/05 08:18:37;;;;;;;13.48;6.85;;;;;;;4.03;100.00;99369.09;4480312;32;20861;-76
2022/12/05 08:21:09;;;;;;;20.52;9.02;;;;;;;4.14;100.00;99362.50;4477378;31;20179;-74
2022/12/05 08:23:38;;;;;;;24.05;8.77;;;;;;;4.11;100.00;99362.66;4479041;31;20116;-75
2022/12/05 08:26:14;;;;;;;18.00;8.55;;;;;;;4.20;100.00;99363.00;4475723;31;20426;-76
2022/12/05 08:28:42;;;;;;;12.45;6.80;;;;;;;4.23;100.00;99372.38;4481990;32;20123;-74
2022/12/05 08:31:14;;;;;;;13.82;6.28;;;;;;;4.19;100.00;99373.44;4479648;32;20151;-74
2022/12/05 08:33:42;;;;;;;14.43;7.55;;;;;;;4.27;100.00;99371.31;4483551;31;20115;-75
2022/12/05 08:36:11;;;;;;;14.98;6.75;;;;;;;4.35;100.00;99371.72;4482874;31;20092;-74
2022/12/05 08:38:39;;;;;;;13.93;7.18;;;;;;;4.40;100.00;99364.50;4484164;31;20160;-74
2022/12/05 08:41:11;;;;;;;17.52;7.18;;;;;;;4.48;100.00;99363.25;4484064;31;20795;-75
2022/12/05 08:43:40;;;;;;;12.77;5.82;;;;;;;4.46;100.00;99372.91;4479204;32;20630;-74
2022/12/05 08:46:08;;;;;;;10.57;6.22;;;;;;;4.62;100.00;99365.97;4481596;32;20123;-75
2022/12/05 08:48:35;;;;;;;13.52;7.45;;;;;;;4.46;100.00;99367.72;4483713;32;20238;-74
2022/12/05 08:51:07;;;;;;;12.00;7.43;;;;;;;4.47;100.00;99378.00;4483915;31;20711;-74
2022/12/05 08:53:35;;;;;;;15.07;8.05;;;;;;;4.49;100.00;99378.75;4482901;31;20255;-75
2022/12/05 08:56:10;;;;;;;14.48;7.32;;;;;;;4.44;100.00;99385.94;4482842;32;20155;-74
2022/12/05 08:58:38;;;;;;;12.80;7.03;;;;;;;4.44;100.00;99376.41;4476828;31;20490;-74
2022/12/05 09:01:16;;;;;;;14.13;7.00;;;;;;;4.60;100.00;99372.97;4484835;31;20145;-74
2022/12/05 09:03:44;;;;;;;17.17;7.90;;;;;;;4.53;100.00;99377.66;4484286;31;20123;-74
2022/12/05 09:06:19;;;;;;;13.98;7.28;;;;;;;4.60;100.00;99370.38;4482337;31;20111;-74
2022/12/05 09:08:47;;;;;;;12.27;7.00;;;;;;;4.53;100.00;99380.25;4478130;31;20113;-74
2022/12/05 09:11:17;;;;;;;11.88;6.82;;;;;;;4.58;100.00;99375.66;4475799;32;20097;-74
2022/12/05 09:13:44;;;;;;;15.13;6.97;;;;;;;4.58;100.00;99367.87;4482943;31;20837;-73
2022/12/05 09:16:19;;;;;;;14.27;7.22;;;;;;;4.48;100.00;99371.91;4482611;31;20123;-74
2022/12/05 09:18:48;;;;;;;14.75;7.90;;;;;;;4.41;100.00;99371.38;4481175;32;20100;-74
2022/12/05 09:21:18;;;;;;;17.08;8.15;;;;;;;4.47;100.00;99364.16;4482492;31;20124;-74
2022/12/05 09:23:45;;;;;;;19.48;8.60;;;;;;;4.46;100.00;99370.31;4478775;32;20175;-75
2022/12/05 09:26:15;;;;;;;17.27;7.68;;;;;;;4.44;100.00;99366.03;4483376;32;20159;-73
2022/12/05 09:28:43;;;;;;;23.02;8.10;;;;;;;4.35;100.00;99357.91;4477361;31;20127;-73
2022/12/05 09:31:13;;;;;;;16.52;7.65;;;;;;;4.37;100.00;99367.28;4476850;32;20080;-74
2022/12/05 09:33:40;;;;;;;17.17;8.70;;;;;;;4.39;100.00;99359.41;4470192;32;21097;-73
2022/12/05 09:36:15;;;;;;;13.35;7.43;;;;;;;4.44;100.00;99358.25;4473617;32;20547;-71
2022/12/05 09:38:43;;;;;;;14.93;7.05;;;;;;;4.44;100.00;99360.00;4481873;31;20531;-71
2022/12/05 09:41:20;;;;;;;17.12;8.15;;;;;;;4.50;100.00;99369.22;4482473;31;20501;-73
2022/12/05 09:44:01;;;;;;;14.98;7.22;;;;;;;4.39;100.00;99368.03;4480501;31;20110;-72
2022/12/05 09:46:45;;;;;;;14.73;8.07;;;;;;;4.39;100.00;99367.19;4482043;32;20092;-72
2022/12/05 09:49:12;;;;;;;11.55;6.47;;;;;;;4.58;100.00;99373.06;4483312;31;20887;-73
2022/12/05 09:51:43;;;;;;;12.25;7.45;;;;;;;4.65;100.00;99357.12;4483482;31;20118;-72
2022/12/05 09:54:11;;;;;;;17.05;8.32;;;;;;;4.75;100.00;99363.50;4481038;32;20150;-72
2022/12/05 09:56:40;;;;;;;13.40;7.32;;;;;;;4.82;100.00;99364.00;4478592;32;20530;-74
2022/12/05 09:59:12;;;;;;;17.48;7.97;;;;;;;4.77;100.00;99351.28;4481110;31;20567;-73
2022/12/05 10:01:53;;;;;;;14.70;8.15;;;;;;;4.86;100.00;99342.12;4479712;31;20153;-74
2022/12/05 10:05:00;;;;;;;19.55;9.45;;;;;;;5.01;100.00;99333.50;4477154;32;20107;-72
2022/12/05 10:07:59;;;;;;;16.02;7.70;;;;;;;4.86;100.00;99323.97;4479639;32;20555;-73
2022/12/05 10:10:45;;;;;;;19.92;9.30;;;;;;;5.01;100.00;99328.31;4477057;32;20142;-73
2022/12/05 10:13:33;;;;;;;16.67;8.77;;;;;;;5.11;100.00;99319.03;4477650;32;20183;-73
2022/12/05 10:16:09;;;;;;;19.27;8.93;;;;;;;5.21;100.00;99318.50;4479831;31;20149;-73
2022/12/05 10:18:45;;;;;;;21.55;8.65;;;;;;;5.41;100.00;99312.97;4477518;32;20114;-73
2022/12/05 10:21:21;;;;;;;19.52;9.98;;;;;;;5.43;100.00;99313.72;4488289;31;20099;-72
2022/12/05 10:23:56;;;;;;;21.27;8.80;;;;;;;5.47;100.00;99307.41;4474269;32;20112;-70
2022/12/05 10:26:44;;;;;;;19.40;10.18;;;;;;;5.72;100.00;99305.94;4474832;32;20119;-71
2022/12/05 10:29:47;;;;;;;23.00;9.70;;;;;;;5.85;100.00;99290.44;4478865;31;20122;-71
2022/12/05 10:32:28;;;;;;;21.58;9.98;;;;;;;5.77;100.00;99285.69;4410431;32;20168;-71
2022/12/05 10:35:08;;;;;;;23.33;10.13;;;;;;;5.89;100.00;99284.13;4410745;32;20141;-71
2022/12/05 10:37:35;;;;;;;20.88;10.18;;;;;;;5.78;100.00;99287.34;4409854;32;20120;-71
2022/12/05 10:40:02;;;;;;;22.83;11.12;;;;;;;5.89;100.00;99293.66;4410169;32;20140;-70
2022/12/05 10:42:33;;;;;;;19.45;10.80;;;;;;;5.81;100.00;99297.59;4415587;32;20723;-72
2022/12/05 10:45:06;;;;;;;24.92;12.02;;;;;;;5.82;100.00;99309.66;4416549;32;20769;-70
2022/12/05 10:47:34;;;;;;;21.95;12.00;;;;;;;5.83;100.00;99310.50;4414645;32;20127;-70
2022/12/05 10:50:14;;;;;;;20.98;10.80;;;;;;;5.86;100.00;99305.94;4410169;32;20133;-69
2022/12/05 10:52:41;;;;;;;25.15;13.35;;;;;;;5.77;100.00;99290.06;4396215;32;20125;-69
2022/12/05 10:55:15;;;;;;;22.67;11.90;;;;;;;5.72;100.00;99299.91;4417576;32;20145;-70
2022/12/05 10:57:48;;;;;;;24.92;13.38;;;;;;;5.81;100.00;99294.13;4403604;32;20155;-69
2022/12/05 11:00:19;;;;;;;27.87;12.63;;;;;;;5.84;100.00;99287.00;4413695;32;20667;-69
2022/12/05 11:02:48;;;;;;;26.45;12.60;;;;;;;5.75;100.00;99274.53;4415957;32;20129;-71
2022/12/05 11:05:26;;;;;;;28.42;14.57;;;;;;;5.62;100.00;99271.03;4422727;32;20216;-71
2022/12/05 11:07:54;;;;;;;26.30;13.00;;;;;;;5.60;100.00;99272.88;4476228;32;20108;-71
2022/12/05 11:10:24;;;;;;;29.40;14.50;;;;;;;5.75;100.00;99271.94;4478628;32;20104;-69
2022/12/05 11:12:55;;;;;;;30.05;15.02;;;;;;;5.74;100.00;99275.50;4481401;31;20122;-68
2022/12/05 11:15:25;;;;;;;29.27;15.15;;;;;;;5.77;100.00;99283.09;4481938;32;20147;-71
2022/12/05 11:17:54;;;;;;;26.98;14.13;;;;;;;5.86;100.00;99284.31;4478588;31;20172;-71
2022/12/05 11:20:21;;;;;;;29.48;14.68;;;;;;;6.08;100.00;99276.03;4481041;32;20160;-71
2022/12/05 11:22:51;;;;;;;26.12;13.38;;;;;;;6.06;100.00;99274.44;4476499;32;20155;-71
2022/12/05 11:25:27;;;;;;;23.77;12.05;;;;;;;5.95;100.00;99282.88;4481568;32;20127;-72
2022/12/05 11:27:56;;;;;;;26.30;13.18;;;;;;;6.01;100.00;99272.13;4477933;32;20122;-70
2022/12/05 11:30:28;;;;;;;29.65;16.17;;;;;;;6.05;100.00;99265.81;4482715;32;20080;-70
2022/12/05 11:33:18;;;;;;;26.65;13.65;;;;;;;5.98;100.00;99254.13;4484260;31;20156;-71
2022/12/05 11:35:46;;;;;;;25.42;13.52;;;;;;;5.97;100.00;99260.28;4481158;32;20806;-72
2022/12/05 11:38:15;;;;;;;27.85;13.93;;;;;;;6.14;100.00;99251.41;4482040;31;20167;-71
2022/12/05 11:40:46;;;;;;;24.02;13.10;;;;;;;6.28;100.00;99258.31;4482906;31;20113;-71
2022/12/05 11:43:37;;;;;;;22.42;12.93;;;;;;;6.08;100.00;99254.41;4471884;32;20433;-70
2022/12/05 11:46:23;;;;;;;20.58;11.93;;;;;;;6.14;100.00;99246.19;4483981;32;20122;-70
2022/12/05 11:49:21;;;;;;;25.62;14.55;;;;;;;6.25;100.00;99240.31;4483700;32;20156;-71
2022/12/05 11:52:16;;;;;;;27.27;14.38;;;;;;;6.04;100.00;99238.13;4481454;31;20450;-70
2022/12/05 11:54:56;;;;;;;26.30;12.27;;;;;;;6.16;100.00;99239.13;4483544;32;20100;-72
2022/12/05 11:57:57;;;;;;;27.62;13.85;;;;;;;6.25;100.00;99237.72;4477037;32;20115;-73